Pagrindinis puslapis
METAR-TAF:

METAR-TAF

Oro uostai :

Belo Horizontė, Minas Žeraisas, Brazilija

platuma: 19-56S, ilguma: 043-56W, Aukštis: 850 m

Dabartinis oras

Ataskaita buvo paskelbta 1 valandą ir 7 minutes, ne 21:00 UTC
Vėjas 11 kt iš Rytų
Temperatūra 24°C
Drėgmė 47%
Slėgis 1019 hPa
Matomumas 10 km arba daugiau
nėra debesų žemiau 1500 m ir nėra kamuolinių lietaus debesų

METAR: SBCF 162100Z 09011KT CAVOK 24/12 Q1019

Laikas: 19:07 (22:07 UTC)

Prognozė

Ataskaita buvo paskelbta 6 valandos ir 7 minutes, ne 16:00 UTC
Prognozė galioja nuo 16 metu 18 UTC su 17 metu 18 UTC
Vėjas 8 kt iš Rytų/Pietryčių
Matomumas 10 km arba daugiau
nėra debesų žemiau 1500 m ir nėra kamuolinių lietaus debesų
Tapsmas
nuo 17 metu 04 UTC su 17 metu 06 UTC
Vėjas 5 kt iš Pietryčių
Tapsmas
nuo 17 metu 12 UTC su 17 metu 14 UTC
Vėjas 10 kt iš Šiaurės Rytų

TAF: SBCF 161600Z 1618/1718 11008KT CAVOK TX27/1618Z TN17/1709Z BECMG 1704/1706 13005KT BECMG 1712/1714 05010KT RMK PAY

Orai ataskaitas ir orų prognozės (METAR, TAF).

turimą stotys yra geltonos ir raudonos taškus žemėlapyje.

Perkelti pele per norėdami pamatyti stoties vardą.

Tada spustelėkite, norėdami matyti oro stebėjimo ir prognozės.

Norėdami pakeisti žemėlapį: spustelėkite ant žalios mygtukų su juodo kryžiaus žemyn,; žalią mygtuką su brūkšneliu, jei norite nutolinti; arba žalių rodyklių gretimoms žemėlapius.


METAR-TAF: